Menu Close Menu
Station Historical Data
Daily Summary for July 4, 2017 Units:  Metric    English   Both
« Previous Day
Next Day »
Daily Weekly Monthly Yearly Custom
  High: Low: Average:
Temperature: 31.4 °C 21.1 °C 23.7 °C
Dew Point: 23.6 °C 19.2 °C 20.8 °C
Humidity: 94% 56% 85%
Wind Speed: 11.4km/h 0km/h 7.4km/h
Wind Gust: 11.4km/h - -
Wind- - SSW
Pressure: 1019.5 hPa 1017.5 hPa -
Precipitation: 0 mm    
Historical Graphs
 
 
Tabular Data for July 4, 2017
Time Temperature Dew Point Pressure Wind Wind Speed Wind Gust Humidity Rainfall Rate (Hourly) solar Conditions
00:03 23.2 °C 20.2 °C 1017.8 hPa North 8.2 km/h   83% 0 mm WeatherDisplay:10.37 W/m2 BKN
00:08 23.1 °C 20.1 °C 1017.8 hPa North 8.2 km/h   83% 0 mm WeatherDisplay:10.37 W/m2 BKN
00:13 23 °C 19.9 °C 1017.8 hPa North 8.2 km/h   83% 0 mm WeatherDisplay:10.37 W/m2 BKN
00:18 22.9 °C 20.1 °C 1017.8 hPa North 8.2 km/h   84% 0 mm WeatherDisplay:10.37 W/m2 CLR
00:23 22.8 °C 20 °C 1017.8 hPa North 8.2 km/h   84% 0 mm WeatherDisplay:10.37 W/m2 CLR
00:28 22.6 °C 19.9 °C 1017.5 hPa North 8.2 km/h   85% 0 mm WeatherDisplay:10.37 W/m2 CLR
00:33 22.5 °C 20.1 °C 1017.5 hPa North 8.2 km/h   86% 0 mm WeatherDisplay:10.37 W/m2 CLR
00:38 22.4 °C 19.9 °C 1017.5 hPa North 8.2 km/h   86% 0 mm WeatherDisplay:10.37 W/m2 CLR
00:43 22.3 °C 19.8 °C 1017.5 hPa North 8.2 km/h   86% 0 mm WeatherDisplay:10.37 W/m2 CLR
00:48 22.2 °C 19.9 °C 1017.5 hPa North 8.2 km/h   87% 0 mm WeatherDisplay:10.37 W/m2 CLR
00:53 22.1 °C 19.8 °C 1017.5 hPa North 8.2 km/h   87% 0 mm WeatherDisplay:10.37 W/m2 CLR
00:58 21.9 °C 19.7 °C 1017.5 hPa North 8.2 km/h   87% 0 mm WeatherDisplay:10.37 W/m2 CLR
01:04 21.9 °C 19.8 °C 1017.5 hPa North 8.2 km/h   88% 0 mm WeatherDisplay:10.37 W/m2 CLR
01:09 21.8 °C 19.8 °C 1017.5 hPa North 8.2 km/h   88% 0 mm WeatherDisplay:10.37 W/m2 CLR
01:14 21.8 °C 19.7 °C 1017.5 hPa North 8.2 km/h   88% 0 mm WeatherDisplay:10.37 W/m2 CLR
01:19 21.7 °C 19.7 °C 1017.5 hPa North 8.2 km/h   88% 0 mm WeatherDisplay:10.37 W/m2 CLR
01:24 21.6 °C 19.6 °C 1017.5 hPa North 8.2 km/h   88% 0 mm WeatherDisplay:10.37 W/m2 CLR
01:29 21.6 °C 19.7 °C 1017.5 hPa North 8.2 km/h   89% 0 mm WeatherDisplay:10.37 W/m2 CLR
01:34 21.4 °C 19.6 °C 1017.5 hPa North 8.2 km/h   89% 0 mm WeatherDisplay:10.37 W/m2 CLR
01:39 21.1 °C 19.2 °C 1017.5 hPa North 8.2 km/h   89% 0 mm WeatherDisplay:10.37 W/m2 CLR
01:44 21.6 °C 19.6 °C 1017.5 hPa North 8.2 km/h   88% 0 mm WeatherDisplay:10.37 W/m2 CLR
01:49 21.6 °C 19.6 °C 1017.5 hPa North 8.2 km/h   88% 0 mm WeatherDisplay:10.37 W/m2 CLR
01:54 21.6 °C 19.6 °C 1017.5 hPa North 8.2 km/h   88% 0 mm WeatherDisplay:10.37 W/m2 CLR
01:59 21.6 °C 19.6 °C 1017.5 hPa North 8.2 km/h   88% 0 mm WeatherDisplay:10.37 W/m2 CLR
02:04 21.6 °C 19.6 °C 1017.5 hPa North 8.2 km/h   88% 0 mm WeatherDisplay:10.37 W/m2 CLR
02:09 21.6 °C 19.6 °C 1017.8 hPa North 8.2 km/h   88% 0 mm WeatherDisplay:10.37 W/m2 CLR
02:14 21.6 °C 19.6 °C 1017.8 hPa North 8.2 km/h   88% 0 mm WeatherDisplay:10.37 W/m2 CLR
02:19 21.6 °C 19.6 °C 1017.8 hPa North 8.2 km/h   88% 0 mm WeatherDisplay:10.37 W/m2 CLR
02:24 21.6 °C 19.6 °C 1017.8 hPa North 8.2 km/h   88% 0 mm WeatherDisplay:10.37 W/m2 CLR
02:29 21.6 °C 19.6 °C 1017.8 hPa North 8.2 km/h   88% 0 mm WeatherDisplay:10.37 W/m2 CLR
02:34 21.6 °C 19.6 °C 1017.8 hPa North 8.2 km/h   88% 0 mm WeatherDisplay:10.37 W/m2 CLR
02:40 21.6 °C 19.6 °C 1017.8 hPa North 8.2 km/h   88% 0 mm WeatherDisplay:10.37 W/m2 CLR
02:45 21.6 °C 19.6 °C 1017.5 hPa Calm     88% 0 mm WeatherDisplay:10.37 W/m2 CLR
02:50 21.6 °C 19.6 °C 1017.8 hPa Calm     88% 0 mm WeatherDisplay:10.37 W/m2 CLR
02:55 21.6 °C 19.6 °C 1017.8 hPa Calm     88% 0 mm WeatherDisplay:10.37 W/m2 CLR
03:00 21.6 °C 19.6 °C 1017.8 hPa Calm     88% 0 mm WeatherDisplay:10.37 W/m2 CLR
03:05 21.6 °C 19.6 °C 1017.5 hPa Calm     88% 0 mm WeatherDisplay:10.37 W/m2 CLR
03:10 21.6 °C 19.6 °C 1017.5 hPa Calm     88% 0 mm WeatherDisplay:10.37 W/m2 CLR
03:15 21.6 °C 19.6 °C 1017.5 hPa Calm     88% 0 mm WeatherDisplay:10.37 W/m2 CLR
03:20 21.6 °C 19.6 °C 1017.5 hPa Calm     88% 0 mm WeatherDisplay:10.37 W/m2 CLR
03:25 21.6 °C 19.6 °C 1017.5 hPa Calm     88% 0 mm WeatherDisplay:10.37 W/m2 CLR
03:30 21.6 °C 19.6 °C 1017.5 hPa Calm     88% 0 mm WeatherDisplay:10.37 W/m2 CLR
03:35 21.6 °C 19.6 °C 1017.5 hPa Calm     88% 0 mm WeatherDisplay:10.37 W/m2 CLR
03:40 21.6 °C 19.6 °C 1017.8 hPa Calm     88% 0 mm WeatherDisplay:10.37 W/m2 CLR
03:45 21.6 °C 19.6 °C 1017.8 hPa Calm     88% 0 mm WeatherDisplay:10.37 W/m2 CLR
03:49 21.6 °C 19.6 °C 1017.8 hPa North 8.2 km/h   88% 0 mm WeatherDisplay:10.37 W/m2 CLR
03:54 21.6 °C 19.6 °C 1017.8 hPa North 8.2 km/h   88% 0 mm WeatherDisplay:10.37 W/m2 CLR
03:59 21.6 °C 19.6 °C 1017.8 hPa North 8.2 km/h   88% 0 mm WeatherDisplay:10.37 W/m2 CLR
04:04 21.6 °C 19.6 °C 1017.8 hPa North 8.2 km/h   88% 0 mm WeatherDisplay:10.37 W/m2 CLR
04:09 21.6 °C 19.6 °C 1017.8 hPa North 8.2 km/h   88% 0 mm WeatherDisplay:10.37 W/m2 CLR
04:14 21.6 °C 19.6 °C 1017.8 hPa North 8.2 km/h   88% 0 mm WeatherDisplay:10.37 W/m2 CLR
04:19 21.6 °C 19.6 °C 1017.8 hPa North 8.2 km/h   88% 0 mm WeatherDisplay:10.37 W/m2 CLR
04:24 21.6 °C 19.6 °C 1017.5 hPa North 8.2 km/h   88% 0 mm WeatherDisplay:10.37 W/m2 CLR
04:29 21.6 °C 19.6 °C 1017.5 hPa North 8.2 km/h   88% 0 mm WeatherDisplay:10.37 W/m2 CLR
04:35 21.6 °C 19.6 °C 1017.8 hPa Calm     88% 0 mm WeatherDisplay:10.37 W/m2 CLR
04:40 21.6 °C 19.6 °C 1017.8 hPa Calm     88% 0 mm WeatherDisplay:10.37 W/m2 CLR
04:45 21.6 °C 19.6 °C 1017.5 hPa Calm     88% 0 mm WeatherDisplay:10.37 W/m2 CLR
04:50 21.6 °C 19.6 °C 1017.8 hPa Calm     88% 0 mm WeatherDisplay:10.37 W/m2 CLR
04:55 21.6 °C 19.6 °C 1017.8 hPa Calm     88% 0 mm WeatherDisplay:10.37 W/m2 CLR
05:00 21.6 °C 19.6 °C 1017.8 hPa North 8.2 km/h   88% 0 mm WeatherDisplay:10.37 W/m2 CLR
05:05 21.6 °C 19.6 °C 1017.8 hPa Calm     88% 0 mm WeatherDisplay:10.37 W/m2 CLR
05:10 21.6 °C 19.6 °C 1017.8 hPa Calm     88% 0 mm WeatherDisplay:10.37 W/m2 CLR
05:15 21.6 °C 19.6 °C 1017.8 hPa Calm     88% 0 mm WeatherDisplay:10.37 W/m2 CLR
05:20 21.6 °C 19.6 °C 1018.2 hPa Calm     88% 0 mm WeatherDisplay:10.37 W/m2 CLR
05:25 21.6 °C 19.6 °C 1018.2 hPa Calm     88% 0 mm WeatherDisplay:10.37 W/m2 CLR
05:30 21.6 °C 19.6 °C 1018.2 hPa Calm     88% 0 mm WeatherDisplay:10.37 W/m2 CLR
05:35 21.6 °C 19.6 °C 1018.2 hPa Calm     88% 0 mm WeatherDisplay:10.37 W/m2 CLR
05:40 21.6 °C 19.6 °C 1018.2 hPa Calm     88% 0 mm WeatherDisplay:10.37 W/m2 CLR
05:45 21.6 °C 19.6 °C 1018.2 hPa Calm     88% 0 mm WeatherDisplay:10.37 W/m2 CLR
05:50 21.6 °C 19.6 °C 1018.5 hPa Calm     88% 0 mm WeatherDisplay:10.37 W/m2 CLR
05:55 21.6 °C 19.6 °C 1018.5 hPa Calm     88% 0 mm WeatherDisplay:10.37 W/m2 CLR
06:00 21.6 °C 19.6 °C 1018.5 hPa North 8.2 km/h   88% 0 mm WeatherDisplay:10.37 W/m2 CLR
06:05 21.6 °C 19.6 °C 1018.5 hPa Calm     88% 0 mm WeatherDisplay:10.37 W/m2 CLR
06:10 21.6 °C 19.6 °C 1018.5 hPa Calm     88% 0 mm WeatherDisplay:10.37 W/m2 CLR
06:15 21.6 °C 19.6 °C 1018.5 hPa Calm     88% 0 mm WeatherDisplay:10.37 W/m2 CLR
06:20 21.6 °C 19.6 °C 1018.5 hPa Calm     88% 0 mm WeatherDisplay:10.37 W/m2 SCT
06:25 21.6 °C 19.6 °C 1018.5 hPa Calm     88% 0 mm WeatherDisplay:10.37 W/m2 SCT
06:30 21.6 °C 19.6 °C 1018.5 hPa Calm     88% 0 mm WeatherDisplay:10.37 W/m2 SCT
06:35 21.6 °C 19.6 °C 1018.5 hPa North 8.2 km/h   88% 0 mm WeatherDisplay:10.37 W/m2 SCT
06:40 21.6 °C 19.6 °C 1018.5 hPa Calm     88% 0 mm WeatherDisplay:10.37 W/m2 SCT
06:45 21.6 °C 19.6 °C 1018.8 hPa Calm     88% 0 mm WeatherDisplay:10.37 W/m2 SCT
06:50 21.6 °C 19.6 °C 1018.8 hPa North 8.2 km/h   88% 0 mm WeatherDisplay:10.37 W/m2 SCT
06:55 21.6 °C 19.6 °C 1018.8 hPa Calm     88% 0 mm WeatherDisplay:10.37 W/m2 SCT
07:00 21.6 °C 19.6 °C 1018.8 hPa Calm     88% 0 mm WeatherDisplay:10.37 W/m2 SCT
07:05 21.6 °C 19.6 °C 1018.8 hPa Calm     88% 0 mm WeatherDisplay:10.37 W/m2 SCT
07:10 21.6 °C 19.6 °C 1018.8 hPa North 8.2 km/h   88% 0 mm WeatherDisplay:10.37 W/m2 SCT
07:15 21.6 °C 19.6 °C 1018.8 hPa Calm     88% 0 mm WeatherDisplay:10.37 W/m2 SCT
07:20 21.6 °C 19.6 °C 1018.8 hPa Calm     88% 0 mm WeatherDisplay:10.37 W/m2 FEW
07:25 21.6 °C 19.6 °C 1018.8 hPa Calm     88% 0 mm WeatherDisplay:10.37 W/m2 FEW
07:30 21.6 °C 19.6 °C 1019.2 hPa North 8.2 km/h   88% 0 mm WeatherDisplay:10.37 W/m2 FEW
07:35 21.6 °C 19.6 °C 1018.8 hPa Calm     88% 0 mm WeatherDisplay:10.37 W/m2 FEW
07:40 21.6 °C 19.6 °C 1019.2 hPa Calm     88% 0 mm WeatherDisplay:10.37 W/m2 FEW
07:45 21.6 °C 19.6 °C 1019.2 hPa Calm     88% 0 mm WeatherDisplay:10.37 W/m2 FEW
07:50 21.6 °C 19.6 °C 1019.2 hPa North 8.2 km/h   88% 0 mm WeatherDisplay:10.37 W/m2 FEW
07:55 21.1 °C 19.9 °C 1019.2 hPa Calm     93% 0 mm WeatherDisplay:10.37 W/m2 FEW
08:00 21.2 °C 20 °C 1019.2 hPa Calm     93% 0 mm WeatherDisplay:10.37 W/m2 FEW
08:05 21.3 °C 20.1 °C 1019.2 hPa Calm     93% 0 mm WeatherDisplay:10.37 W/m2 FEW
08:10 21.4 °C 20.2 °C 1019.2 hPa Calm     93% 0 mm WeatherDisplay:10.37 W/m2 FEW
08:15 21.6 °C 20.4 °C 1019.2 hPa Calm     93% 0 mm WeatherDisplay:10.37 W/m2 FEW
08:21 21.7 °C 20.6 °C 1019.2 hPa North 8.2 km/h   93% 0 mm WeatherDisplay:10.37 W/m2 FEW
08:26 21.9 °C 20.7 °C 1019.2 hPa North 8.2 km/h   93% 0 mm WeatherDisplay:10.37 W/m2 FEW
08:31 22 °C 20.7 °C 1019.5 hPa North 8.2 km/h   92% 0 mm WeatherDisplay:10.37 W/m2 FEW
08:36 22.2 °C 20.8 °C 1019.5 hPa North 8.2 km/h   92% 0 mm WeatherDisplay:10.37 W/m2 FEW
08:41 22.3 °C 20.8 °C 1019.5 hPa North 8.2 km/h   91% 0 mm WeatherDisplay:10.37 W/m2 FEW
08:46 22.6 °C 21 °C 1019.5 hPa North 8.2 km/h   91% 0 mm WeatherDisplay:10.37 W/m2 FEW
08:51 22.8 °C 21.1 °C 1019.5 hPa North 8.2 km/h   90% 0 mm WeatherDisplay:10.37 W/m2 FEW
08:56 23.1 °C 21.2 °C 1019.5 hPa North 8.2 km/h   89% 0 mm WeatherDisplay:10.37 W/m2 FEW
09:01 23.3 °C 21.2 °C 1019.5 hPa North 8.2 km/h   88% 0 mm WeatherDisplay:10.37 W/m2 FEW
09:06 23.5 °C 21.4 °C 1019.5 hPa North 8.2 km/h   88% 0 mm WeatherDisplay:10.37 W/m2 FEW
09:11 23.8 °C 21.7 °C 1019.5 hPa North 8.2 km/h   88% 0 mm WeatherDisplay:10.37 W/m2 FEW
09:16 24.1 °C 21.6 °C 1019.5 hPa North 8.2 km/h   86% 0 mm WeatherDisplay:10.37 W/m2 FEW
09:21 24.3 °C 21.7 °C 1019.5 hPa North 8.2 km/h   85% 0 mm WeatherDisplay:10.37 W/m2 FEW
09:27 24.6 °C 21.9 °C 1019.5 hPa North 8.2 km/h   85% 0 mm WeatherDisplay:10.37 W/m2 FEW
09:32 24.9 °C 22.2 °C 1019.5 hPa North 8.2 km/h   85% 0 mm WeatherDisplay:10.37 W/m2 FEW
09:37 25.2 °C 22.3 °C 1019.5 hPa North 8.2 km/h   84% 0 mm WeatherDisplay:10.37 W/m2 FEW
09:42 25.4 °C 22.3 °C 1019.2 hPa North 8.2 km/h   83% 0 mm WeatherDisplay:10.37 W/m2 FEW
09:47 25.7 °C 22.4 °C 1019.5 hPa North 8.2 km/h   82% 0 mm WeatherDisplay:10.37 W/m2 FEW
09:52 25.9 °C 22.4 °C 1019.2 hPa NNW 8.2 km/h   81% 0 mm WeatherDisplay:10.37 W/m2 FEW
09:57 26.1 °C 22.3 °C 1019.2 hPa NNW 8.2 km/h   80% 0 mm WeatherDisplay:10.37 W/m2 FEW
10:02 26.3 °C 22.4 °C 1019.2 hPa NNW 8.2 km/h 8.2 km/h 79% 0 mm WeatherDisplay:10.37 W/m2 FEW
10:07 26.6 °C 22.4 °C 1019.2 hPa NW 8.2 km/h   78% 0 mm WeatherDisplay:10.37 W/m2 FEW
10:12 27 °C 23.1 °C 1019.2 hPa NW 8.2 km/h 8.2 km/h 79% 0 mm WeatherDisplay:10.37 W/m2 FEW
10:17 27.4 °C 23.1 °C 1019.2 hPa NW 8.2 km/h   77% 0 mm WeatherDisplay:10.37 W/m2 FEW
10:22 27.8 °C 22.7 °C 1019.2 hPa West 8.2 km/h 8.2 km/h 74% 0 mm WeatherDisplay:10.37 W/m2 FEW
10:23 27.8 °C 22.8 °C 1018.8 hPa West 8.2 km/h 8.2 km/h 74% 0 mm WeatherDisplay:10.37 W/m2 FEW
10:28 28 °C 22.5 °C 1019.2 hPa NW 8.2 km/h 8.2 km/h 72% 0 mm WeatherDisplay:10.37 W/m2 FEW
10:33 28.2 °C 23.1 °C 1019.2 hPa WNW 8.2 km/h 8.2 km/h 74% 0 mm WeatherDisplay:10.37 W/m2 FEW
10:39 28.3 °C 23 °C 1019.2 hPa NW 8.2 km/h   73% 0 mm WeatherDisplay:10.37 W/m2 FEW
10:44 28.3 °C 22.8 °C 1019.2 hPa NNE 8.2 km/h   72% 0 mm WeatherDisplay:10.37 W/m2 FEW
10:49 28.4 °C 22.9 °C 1019.2 hPa WSW 8.2 km/h   72% 0 mm WeatherDisplay:10.37 W/m2 FEW
10:54 28.5 °C 22.7 °C 1019.2 hPa SSW 8.2 km/h 8.2 km/h 71% 0 mm WeatherDisplay:10.37 W/m2 FEW
10:59 28.6 °C 22.6 °C 1019.2 hPa NW 8.2 km/h   70% 0 mm WeatherDisplay:10.37 W/m2 FEW
11:04 28.7 °C 22.7 °C 1019.2 hPa WSW 8.2 km/h   70% 0 mm WeatherDisplay:10.37 W/m2 FEW
11:09 28.9 °C 23.6 °C 1019.2 hPa SW 8.2 km/h 8.2 km/h 73% 0 mm WeatherDisplay:10.37 W/m2 FEW
11:13 28.9 °C 22.7 °C 1019.2 hPa NW 8.2 km/h 8.2 km/h 69% 0 mm WeatherDisplay:10.37 W/m2 FEW
11:18 29.1 °C 23.5 °C 1019.2 hPa NW 8.2 km/h   72% 0 mm WeatherDisplay:10.37 W/m2 FEW
11:23 29.1 °C 22.8 °C 1019.2 hPa NW 8.2 km/h   69% 0 mm WeatherDisplay:10.37 W/m2 FEW
11:28 29 °C 23.2 °C 1019.2 hPa West 8.2 km/h 8.2 km/h 71% 0 mm WeatherDisplay:10.37 W/m2 FEW
11:33 28.8 °C 22.8 °C 1018.8 hPa West 8.2 km/h   70% 0 mm WeatherDisplay:10.37 W/m2 FEW
11:38 28.6 °C 22.8 °C 1018.8 hPa SSW 8.2 km/h 8.2 km/h 71% 0 mm WeatherDisplay:10.37 W/m2 FEW
11:44 28.7 °C 23.2 °C 1018.8 hPa WNW 8.2 km/h 8.2 km/h 72% 0 mm WeatherDisplay:10.37 W/m2 FEW
11:49 29 °C 22.7 °C 1018.8 hPa SW 8.2 km/h 8.2 km/h 69% 0 mm WeatherDisplay:10.37 W/m2 FEW
11:54 29.1 °C 23.3 °C 1018.8 hPa NE 8.2 km/h 8.2 km/h 71% 0 mm WeatherDisplay:10.37 W/m2 FEW
11:59 29.1 °C 22.3 °C 1018.8 hPa NNW 8.2 km/h 8.2 km/h 67% 0 mm WeatherDisplay:10.37 W/m2 FEW
12:04 29.2 °C 22.4 °C 1018.8 hPa West 8.2 km/h 8.2 km/h 67% 0 mm WeatherDisplay:10.37 W/m2 FEW
12:09 29.2 °C 22.9 °C 1018.8 hPa North 8.2 km/h   69% 0 mm WeatherDisplay:10.37 W/m2 FEW
12:14 29.2 °C 22.4 °C 1018.8 hPa NW 8.2 km/h 8.2 km/h 67% 0 mm WeatherDisplay:10.37 W/m2 FEW
12:19 29.1 °C 23.1 °C 1018.8 hPa WNW 8.2 km/h   70% 0 mm WeatherDisplay:10.37 W/m2 BKN
12:24 29.3 °C 23.2 °C 1018.8 hPa West 8.2 km/h 8.2 km/h 70% 0 mm WeatherDisplay:10.37 W/m2 BKN
12:29 29.6 °C 23 °C 1018.8 hPa NW 8.2 km/h   68% 0 mm WeatherDisplay:10.37 W/m2 BKN
12:34 29.7 °C 23.2 °C 1018.8 hPa SW 8.2 km/h   68% 0 mm WeatherDisplay:10.37 W/m2 BKN
12:39 29.9 °C 23.1 °C 1018.5 hPa NW 8.2 km/h   67% 0 mm WeatherDisplay:10.37 W/m2 BKN
12:44 29.9 °C 22.7 °C 1018.5 hPa North 8.2 km/h   65% 0 mm WeatherDisplay:10.37 W/m2 BKN
12:49 30.1 °C 23.1 °C 1018.5 hPa NW 8.2 km/h   66% 0 mm WeatherDisplay:10.37 W/m2 BKN
12:54 30.4 °C 23.4 °C 1018.5 hPa NW 8.2 km/h   66% 0 mm WeatherDisplay:10.37 W/m2 BKN
12:59 30.6 °C 22.8 °C 1018.5 hPa West 8.2 km/h 8.2 km/h 63% 0 mm WeatherDisplay:10.37 W/m2 BKN
13:05 30.8 °C 23.2 °C 1018.2 hPa Calm   1.6 km/h 64% 0 mm WeatherDisplay:10.37 W/m2 BKN
13:10 30.8 °C 22.2 °C 1018.2 hPa Calm   3.2 km/h 60% 0 mm WeatherDisplay:10.37 W/m2 BKN
13:15 30.7 °C 23.1 °C 1018.2 hPa Calm   1.6 km/h 64% 0 mm WeatherDisplay:10.37 W/m2 BKN
13:20 30.9 °C 22.8 °C 1018.2 hPa Calm   4.8 km/h 62% 0 mm WeatherDisplay:10.37 W/m2 BKN
13:25 31.1 °C 22.9 °C 1018.2 hPa NNE 1.6 km/h 4.8 km/h 62% 0 mm WeatherDisplay:10.37 W/m2 BKN
13:30 31.1 °C 22.4 °C 1018.2 hPa Calm   3.2 km/h 60% 0 mm WeatherDisplay:10.37 W/m2 BKN
13:35 31.1 °C 22.9 °C 1018.2 hPa Calm   3.2 km/h 62% 0 mm WeatherDisplay:10.37 W/m2 BKN
13:40 31.4 °C 23 °C 1017.8 hPa SW 8.2 km/h 8.2 km/h 61% 0 mm WeatherDisplay:10.37 W/m2 BKN
13:45 31.4 °C 22.9 °C 1017.8 hPa SSW 8.2 km/h 8.2 km/h 61% 0 mm WeatherDisplay:10.37 W/m2 OVC
13:50 31.4 °C 23.5 °C 1018.2 hPa WSW 8.2 km/h   63% 0 mm WeatherDisplay:10.37 W/m2 OVC
13:56 31.3 °C 22.3 °C 1018.2 hPa North 8.2 km/h   59% 0 mm WeatherDisplay:10.37 W/m2 BKN
14:01 31.2 °C 22.8 °C 1017.8 hPa West 8.2 km/h 8.2 km/h 61% 0 mm WeatherDisplay:10.37 W/m2 BKN
14:06 31.2 °C 23 °C 1017.8 hPa West 8.2 km/h   62% 0 mm WeatherDisplay:10.37 W/m2 BKN
14:11 31.3 °C 23.4 °C 1017.8 hPa NNW 8.2 km/h 8.2 km/h 63% 0 mm WeatherDisplay:10.37 W/m2 BKN
14:16 31.4 °C 22.4 °C 1017.8 hPa SW 8.2 km/h 8.2 km/h 59% 0 mm WeatherDisplay:10.37 W/m2 BKN
14:21 31.3 °C 22.9 °C 1017.8 hPa NW 11.1 km/h 11.1 km/h 61% 0 mm WeatherDisplay:10.37 W/m2 BKN
14:26 31.2 °C 22.8 °C 1017.5 hPa WNW 11.1 km/h 11.1 km/h 61% 0 mm WeatherDisplay:10.37 W/m2 BKN
14:31 31.2 °C 23.3 °C 1017.5 hPa WNW 11.1 km/h   63% 0 mm WeatherDisplay:10.37 W/m2 BKN
14:36 31.3 °C 23.2 °C 1017.5 hPa South 11.1 km/h   62% 0 mm WeatherDisplay:10.37 W/m2 BKN
14:41 31.3 °C 22.3 °C 1017.5 hPa SW 11.1 km/h 11.1 km/h 59% 0 mm WeatherDisplay:10.37 W/m2 BKN
14:46 31.2 °C 23.1 °C 1017.5 hPa WNW 11.1 km/h 11.1 km/h 62% 0 mm WeatherDisplay:10.37 W/m2 BKN
14:51 31.2 °C 23.3 °C 1017.5 hPa WNW 11.1 km/h   63% 0 mm WeatherDisplay:10.37 W/m2 BKN
14:56 31 °C 23.1 °C 1017.8 hPa ESE 11.1 km/h 11.1 km/h 63% 0 mm WeatherDisplay:10.37 W/m2 BKN
15:01 29.9 °C 20.2 °C 1018.5 hPa SE 11.1 km/h 11.1 km/h 56% 0 mm WeatherDisplay:10.37 W/m2 BKN
15:06 27.6 °C 19.3 °C 1019.2 hPa SSW 11.4 km/h 11.4 km/h 61% 0 mm WeatherDisplay:10.37 W/m2 BKN
15:11 25.6 °C 19.5 °C 1019.2 hPa West 11.4 km/h 11.4 km/h 69% 0 mm WeatherDisplay:10.37 W/m2 BKN
15:17 24.6 °C 19.8 °C 1019.5 hPa North 11.4 km/h 11.4 km/h 75% 0 mm WeatherDisplay:10.37 W/m2 BKN
15:22 23.8 °C 20.1 °C 1019.5 hPa WNW 11.4 km/h 11.4 km/h 80% 0 mm WeatherDisplay:10.37 W/m2 BKN
15:27 23 °C 19.9 °C 1019.2 hPa WNW 11.4 km/h 11.4 km/h 83% 0 mm WeatherDisplay:10.37 W/m2 BKN
15:32 22.2 °C 19.6 °C 1018.8 hPa SW 11.4 km/h 11.4 km/h 85% 0 mm WeatherDisplay:10.37 W/m2 BKN
15:37 21.7 °C 19.3 °C 1018.5 hPa WNW 11.4 km/h 11.4 km/h 86% 0 mm WeatherDisplay:10.37 W/m2 BKN
15:42 21.5 °C 19.4 °C 1018.5 hPa WNW 11.4 km/h   88% 0 mm WeatherDisplay:10.37 W/m2 BKN
15:47 21.4 °C 19.5 °C 1018.2 hPa WNW 11.4 km/h   89% 0 mm WeatherDisplay:10.37 W/m2 -RA
15:52 21.3 °C 19.4 °C 1018.2 hPa WNW 11.4 km/h   89% 0 mm WeatherDisplay:10.37 W/m2 -RA
15:57 21.3 °C 19.6 °C 1018.2 hPa WNW 11.4 km/h   90% 0 mm WeatherDisplay:10.37 W/m2 -RA
16:02 21.4 °C 19.9 °C 1018.2 hPa WNW 11.4 km/h   91% 0 mm WeatherDisplay:10.37 W/m2 -RA
16:07 21.5 °C 19.9 °C 1018.2 hPa WNW 11.4 km/h   91% 0 mm WeatherDisplay:10.37 W/m2 -RA
16:12 21.7 °C 20.2 °C 1018.2 hPa WNW 11.4 km/h   91% 0 mm WeatherDisplay:10.37 W/m2 -RA
16:17 21.8 °C 20.3 °C 1018.2 hPa WNW 11.4 km/h   91% 0 mm WeatherDisplay:10.37 W/m2 -RA
16:22 21.9 °C 20.6 °C 1018.2 hPa WNW 11.4 km/h   92% 0 mm WeatherDisplay:10.37 W/m2 -RA
16:27 22.2 °C 20.8 °C 1018.2 hPa WNW 11.4 km/h   92% 0 mm WeatherDisplay:10.37 W/m2 -RA
16:32 22.3 °C 20.9 °C 1018.2 hPa WNW 11.4 km/h   92% 0 mm WeatherDisplay:10.37 W/m2 -RA
16:38 22.4 °C 21.1 °C 1018.2 hPa WNW 11.4 km/h   92% 0 mm WeatherDisplay:10.37 W/m2 -RA
16:43 22.7 °C 21.3 °C 1018.2 hPa WNW 11.4 km/h   92% 0 mm WeatherDisplay:10.37 W/m2 -RA
16:48 22.8 °C 21.4 °C 1018.2 hPa WNW 11.4 km/h   92% 0 mm WeatherDisplay:10.37 W/m2 -RA
16:53 23.2 °C 21.8 °C 1018.2 hPa WNW 11.4 km/h   92% 0 mm WeatherDisplay:10.37 W/m2 -RA
16:58 23.4 °C 22 °C 1018.2 hPa WNW 11.4 km/h   92% 0 mm WeatherDisplay:10.37 W/m2 -RA
17:03 23.7 °C 22.3 °C 1018.2 hPa WNW 11.4 km/h   92% 0 mm WeatherDisplay:10.37 W/m2 -RA
17:08 23.9 °C 22.6 °C 1017.8 hPa WNW 11.4 km/h   92% 0 mm WeatherDisplay:10.37 W/m2 -RA
17:13 24 °C 22.3 °C 1017.8 hPa WNW 11.4 km/h   90% 0 mm WeatherDisplay:10.37 W/m2 -RA
17:18 23.9 °C 22.2 °C 1018.2 hPa WNW 11.4 km/h   90% 0 mm WeatherDisplay:10.37 W/m2 BKN
17:23 23.8 °C 22.1 °C 1018.5 hPa WNW 11.4 km/h 11.4 km/h 90% 0 mm WeatherDisplay:10.37 W/m2 BKN
17:28 23.7 °C 21.9 °C 1017.8 hPa West 11.4 km/h 11.4 km/h 90% 0 mm WeatherDisplay:10.37 W/m2 BKN
17:33 23.6 °C 21.8 °C 1017.8 hPa West 11.4 km/h   90% 0 mm WeatherDisplay:10.37 W/m2 BKN
17:38 23.4 °C 21.7 °C 1017.8 hPa West 11.4 km/h   90% 0 mm WeatherDisplay:10.37 W/m2 BKN
17:44 23.4 °C 21.7 °C 1017.8 hPa West 11.4 km/h   90% 0 mm WeatherDisplay:10.37 W/m2 BKN
17:49 23.3 °C 21.6 °C 1017.8 hPa West 11.4 km/h   90% 0 mm WeatherDisplay:10.37 W/m2 BKN
17:54 23.1 °C 21.2 °C 1017.8 hPa West 11.4 km/h   89% 0 mm WeatherDisplay:10.37 W/m2 BKN
17:59 22.9 °C 21 °C 1017.8 hPa West 11.4 km/h   89% 0 mm WeatherDisplay:10.37 W/m2 -DZ
18:04 22.8 °C 21.1 °C 1017.8 hPa West 11.4 km/h   90% 0 mm WeatherDisplay:10.37 W/m2 -DZ
18:09 22.6 °C 20.9 °C 1018.2 hPa WNW 11.4 km/h   90% 0 mm WeatherDisplay:10.37 W/m2 -DZ
18:13 22.6 °C 20.9 °C 1018.2 hPa WNW 11.4 km/h   90% 0 mm WeatherDisplay:10.37 W/m2 -DZ
18:18 22.6 °C 21 °C 1017.8 hPa WNW 11.4 km/h   91% 0 mm WeatherDisplay:10.37 W/m2 BKN
18:23 22.5 °C 20.9 °C 1017.8 hPa WNW 11.4 km/h   91% 0 mm WeatherDisplay:10.37 W/m2 BKN
18:24 22.4 °C 20.9 °C 1017.8 hPa WNW 11.4 km/h   91% 0 mm WeatherDisplay:10.37 W/m2 BKN
18:29 22.4 °C 21.1 °C 1017.8 hPa WNW 11.4 km/h   92% 0 mm WeatherDisplay:10.37 W/m2 BKN
18:34 22.4 °C 21 °C 1017.8 hPa West 11.4 km/h 11.4 km/h 92% 0 mm WeatherDisplay:10.37 W/m2 BKN
18:39 22.4 °C 21 °C 1018.2 hPa West 11.4 km/h 11.4 km/h 92% 0 mm WeatherDisplay:10.37 W/m2 BKN
18:44 22.3 °C 20.9 °C 1017.8 hPa WNW 11.4 km/h   92% 0 mm WeatherDisplay:10.37 W/m2 BKN
18:49 22.1 °C 20.7 °C 1017.8 hPa WNW 11.4 km/h   92% 0 mm WeatherDisplay:10.37 W/m2 -RA
18:54 22.1 °C 20.7 °C 1018.2 hPa WNW 11.4 km/h   92% 0 mm WeatherDisplay:10.37 W/m2 -RA
18:59 21.9 °C 20.6 °C 1017.8 hPa WNW 11.4 km/h   92% 0 mm WeatherDisplay:10.37 W/m2 -RA
19:04 21.9 °C 20.6 °C 1017.8 hPa WNW 11.4 km/h   92% 0 mm WeatherDisplay:10.37 W/m2 -RA
19:09 21.8 °C 20.5 °C 1018.2 hPa WNW 11.4 km/h   92% 0 mm WeatherDisplay:10.37 W/m2 -RA
19:14 21.8 °C 20.4 °C 1018.2 hPa WNW 11.4 km/h   92% 0 mm WeatherDisplay:10.37 W/m2 -RA
19:19 21.7 °C 20.3 °C 1017.8 hPa WNW 11.4 km/h   92% 0 mm WeatherDisplay:10.37 W/m2 -RA
19:24 21.6 °C 20.3 °C 1017.8 hPa WNW 11.4 km/h   92% 0 mm WeatherDisplay:10.37 W/m2 -RA
19:29 21.6 °C 20.3 °C 1017.8 hPa WNW 11.4 km/h   92% 0 mm WeatherDisplay:10.37 W/m2 -RA
19:35 21.7 °C 20.3 °C 1017.5 hPa WNW 11.4 km/h   92% 0 mm WeatherDisplay:10.37 W/m2 -RA
19:40 21.7 °C 20.4 °C 1017.5 hPa Calm     92% 0 mm WeatherDisplay:10.37 W/m2 -RA
19:45 21.8 °C 20.6 °C 1017.5 hPa Calm     93% 0 mm WeatherDisplay:10.37 W/m2 -RA
19:50 21.8 °C 20.6 °C 1017.5 hPa Calm     93% 0 mm WeatherDisplay:10.37 W/m2 -RA
19:55 21.8 °C 20.4 °C 1017.8 hPa WNW 11.4 km/h   92% 0 mm WeatherDisplay:10.37 W/m2 -RA
20:00 21.8 °C 20.7 °C 1017.8 hPa Calm     93% 0 mm WeatherDisplay:10.37 W/m2 -RA
20:05 21.8 °C 20.7 °C 1017.8 hPa Calm     93% 0 mm WeatherDisplay:10.37 W/m2 -RA
20:10 21.9 °C 20.7 °C 1017.8 hPa Calm     93% 0 mm WeatherDisplay:10.37 W/m2 -RA
20:15 21.9 °C 20.7 °C 1017.8 hPa Calm     93% 0 mm WeatherDisplay:10.37 W/m2 -RA
20:20 21.9 °C 20.7 °C 1017.8 hPa Calm     93% 0 mm WeatherDisplay:10.37 W/m2 BKN
20:25 21.8 °C 20.4 °C 1017.8 hPa Calm     92% 0 mm WeatherDisplay:10.37 W/m2 BKN
20:30 21.8 °C 20.6 °C 1017.8 hPa WNW 11.4 km/h   93% 0 mm WeatherDisplay:10.37 W/m2 BKN
20:35 21.8 °C 20.6 °C 1017.8 hPa Calm     93% 0 mm WeatherDisplay:10.37 W/m2 BKN
20:40 21.8 °C 20.6 °C 1017.5 hPa WNW 11.4 km/h   93% 0 mm WeatherDisplay:10.37 W/m2 BKN
20:45 21.7 °C 20.6 °C 1017.8 hPa WNW 11.4 km/h   93% 0 mm WeatherDisplay:10.37 W/m2 BKN
20:46 21.7 °C 20.6 °C 1017.8 hPa WNW 11.4 km/h   93% 0 mm WeatherDisplay:10.37 W/m2 BKN
20:51 21.7 °C 20.6 °C 1017.8 hPa WNW 11.4 km/h   93% 0 mm WeatherDisplay:10.37 W/m2 BKN
20:56 21.7 °C 20.6 °C 1017.8 hPa WNW 11.4 km/h   93% 0 mm WeatherDisplay:10.37 W/m2 BKN
21:01 21.7 °C 20.6 °C 1017.8 hPa WNW 11.4 km/h   93% 0 mm WeatherDisplay:10.37 W/m2 BKN
21:06 21.7 °C 20.6 °C 1017.8 hPa WNW 11.4 km/h   93% 0 mm WeatherDisplay:10.37 W/m2 BKN
21:11 21.7 °C 20.6 °C 1018.2 hPa WNW 11.4 km/h   93% 0 mm WeatherDisplay:10.37 W/m2 BKN
21:16 21.7 °C 20.5 °C 1018.2 hPa WNW 11.4 km/h   93% 0 mm WeatherDisplay:10.37 W/m2 BKN
21:21 21.6 °C 20.4 °C 1018.2 hPa WNW 11.4 km/h   93% 0 mm WeatherDisplay:10.37 W/m2 BKN
21:26 21.6 °C 20.4 °C 1018.2 hPa WNW 11.4 km/h   93% 0 mm WeatherDisplay:10.37 W/m2 BKN
21:31 21.5 °C 20.3 °C 1018.5 hPa WNW 11.4 km/h   93% 0 mm WeatherDisplay:10.37 W/m2 BKN
21:36 21.5 °C 20.3 °C 1018.5 hPa WNW 11.4 km/h   93% 0 mm WeatherDisplay:10.37 W/m2 BKN
21:41 21.5 °C 20.3 °C 1018.5 hPa WNW 11.4 km/h   93% 0 mm WeatherDisplay:10.37 W/m2 BKN
21:42 21.5 °C 20.3 °C 1018.5 hPa WNW 11.4 km/h   93% 0 mm WeatherDisplay:10.37 W/m2 BKN
21:47 21.4 °C 20.3 °C 1018.5 hPa WNW 11.4 km/h   93% 0 mm WeatherDisplay:10.37 W/m2 BKN
21:52 21.4 °C 20.3 °C 1018.5 hPa WNW 11.4 km/h   93% 0 mm WeatherDisplay:10.37 W/m2 BKN
21:57 21.4 °C 20.3 °C 1018.5 hPa WNW 11.4 km/h   93% 0 mm WeatherDisplay:10.37 W/m2 BKN
22:02 21.4 °C 20.3 °C 1018.5 hPa WNW 11.4 km/h   93% 0 mm WeatherDisplay:10.37 W/m2 BKN
22:07 21.4 °C 20.3 °C 1018.8 hPa WNW 11.4 km/h   93% 0 mm WeatherDisplay:10.37 W/m2 BKN
22:12 21.4 °C 20.3 °C 1018.8 hPa WNW 11.4 km/h   93% 0 mm WeatherDisplay:10.37 W/m2 BKN
22:17 21.4 °C 20.2 °C 1018.8 hPa WNW 11.4 km/h   93% 0 mm WeatherDisplay:10.37 W/m2 BKN
22:22 21.4 °C 20.2 °C 1018.8 hPa WNW 11.4 km/h   93% 0 mm WeatherDisplay:10.37 W/m2 BKN
22:27 21.4 °C 20.2 °C 1018.8 hPa WNW 11.4 km/h   93% 0 mm WeatherDisplay:10.37 W/m2 BKN
22:32 21.3 °C 20.2 °C 1018.8 hPa WNW 11.4 km/h   93% 0 mm WeatherDisplay:10.37 W/m2 BKN
22:37 21.3 °C 20.2 °C 1018.8 hPa WNW 11.4 km/h   93% 0 mm WeatherDisplay:10.37 W/m2 BKN
22:43 21.3 °C 20.1 °C 1018.8 hPa WNW 11.4 km/h   93% 0 mm WeatherDisplay:10.37 W/m2 BKN
22:48 21.3 °C 20.1 °C 1018.8 hPa WNW 11.4 km/h   93% 0 mm WeatherDisplay:10.37 W/m2 BKN
22:53 21.2 °C 20.1 °C 1018.8 hPa WNW 11.4 km/h   93% 0 mm WeatherDisplay:10.37 W/m2 BKN
22:58 21.2 °C 20.1 °C 1018.8 hPa WNW 11.4 km/h   93% 0 mm WeatherDisplay:10.37 W/m2 BKN
23:03 21.2 °C 20.1 °C 1018.8 hPa WNW 11.4 km/h   93% 0 mm WeatherDisplay:10.37 W/m2 BKN
23:08 21.2 °C 20 °C 1018.8 hPa WNW 11.4 km/h   93% 0 mm WeatherDisplay:10.37 W/m2 BKN
23:13 21.2 °C 20 °C 1018.8 hPa WNW 11.4 km/h   93% 0 mm WeatherDisplay:10.37 W/m2 BKN
23:18 21.2 °C 20 °C 1018.8 hPa WNW 11.4 km/h   93% 0 mm WeatherDisplay:10.37 W/m2 BKN
23:23 21.1 °C 19.9 °C 1018.8 hPa WNW 11.4 km/h   93% 0 mm WeatherDisplay:10.37 W/m2 BKN
23:28 21.1 °C 19.9 °C 1018.8 hPa WNW 11.4 km/h   93% 0 mm WeatherDisplay:10.37 W/m2 BKN
23:33 21.1 °C 19.9 °C 1018.8 hPa WNW 11.4 km/h   93% 0 mm WeatherDisplay:10.37 W/m2 BKN
23:38 21.2 °C 20 °C 1019.2 hPa WNW 11.4 km/h   93% 0 mm WeatherDisplay:10.37 W/m2 BKN
23:43 21.2 °C 20 °C 1019.2 hPa WNW 11.4 km/h   93% 0 mm WeatherDisplay:10.37 W/m2 BKN
23:48 21.2 °C 20 °C 1019.2 hPa WNW 11.4 km/h   93% 0 mm WeatherDisplay:10.37 W/m2 BKN
23:53 21.2 °C 20.1 °C 1019.2 hPa WNW 11.4 km/h   93% 0 mm WeatherDisplay:10.37 W/m2 BKN
23:58 21.3 °C 20.3 °C 1019.2 hPa WNW 11.4 km/h   94% 0 mm WeatherDisplay:10.37 W/m2 BKN
Piedmont Bend
Compliments of Weather Underground - 4 mb